Site contains unofficial IBTrACS data. Visit the IBTrACS Website to access archived data.

1926 NOT_NAMED (1926224N16127)


IBTrACS version v04r00. Visit IBTrACS website for data access.
Please direct all questions to the IBTrACS Q and A forum

Storm track - Intensity - Wind Radii - Intensity Data - Source Data - All data

Summary Information

Storm ID 1926224N16127
Start Aug 11 22Z
Landfall Aug 12 15Z
End Aug 16 22Z
ATCF IDs
Track status Best track data.

Storm track plot

Map of storm track

Intensity plots

No Intensity information for this storm


Radial wind information

No radial wind information for this storm


Position and Intensity Table

BASIN ISO_TIME_________ NATURE LAT LON
degrees north degrees east
WP 1926-08-11 22:00:00 NR 15.60 126.80
WP 1926-08-12 00:00:00 NR 15.75 126.20
WP 03:00:00 NR 15.95 125.31
WP 06:00:00 NR 16.13 124.46
WP 09:00:00 NR 16.27 123.65
WP 10:00:00 NR 16.30 123.40
WP 12:00:00 NR 16.35 122.92
WP 15:00:00 NR 16.39 122.24
WP 18:00:00 NR 16.40 121.56
WP 21:00:00 NR 16.40 120.85
WP 22:00:00 NR 16.40 120.60
WP 1926-08-13 00:00:00 NR 16.42 120.05
WP 03:00:00 NR 16.44 119.16
WP 06:00:00 NR 16.47 118.24
WP 09:00:00 NR 16.49 117.31
WP 10:00:00 NR 16.50 117.00
WP 12:00:00 NR 16.54 116.29
WP 15:00:00 NR 16.61 115.21
WP 18:00:00 NR 16.65 114.25
WP 21:00:00 NR 16.63 113.55
WP 22:00:00 NR 16.60 113.40
WP 1926-08-14 00:00:00 NR 16.50 113.32
WP 03:00:00 NR 16.28 113.48
WP 06:00:00 NR 16.02 113.81
WP 09:00:00 NR 15.77 114.13
WP 10:00:00 NR 15.70 114.20
WP 12:00:00 NR 15.53 114.12
WP 15:00:00 NR 15.29 113.91
WP 18:00:00 NR 15.14 113.67
WP 21:00:00 NR 15.15 113.52
WP 22:00:00 NR 15.20 113.50
WP 1926-08-15 00:00:00 NR 15.45 113.54
WP 03:00:00 NR 15.99 113.71
WP 06:00:00 NR 16.61 114.02
WP 09:00:00 NR 17.16 114.44
WP 10:00:00 NR 17.30 114.60
WP 12:00:00 NR 17.43 114.97
WP 15:00:00 NR 17.50 115.61
WP 18:00:00 NR 17.50 116.31
WP 21:00:00 NR 17.49 116.99
WP 22:00:00 NR 17.50 117.20
WP 1926-08-16 00:00:00 NR 17.55 117.60
WP 03:00:00 NR 17.67 118.16
WP 06:00:00 NR 17.84 118.64
WP 09:00:00 NR 18.09 119.01
WP 10:00:00 NR 18.20 119.10
WP 12:00:00 NR 18.45 119.24
WP 15:00:00 NR 18.91 119.34
WP 18:00:00 NR 19.44 119.35
WP 21:00:00 NR 20.01 119.32
WP 22:00:00 NR 20.20 119.30

Source Information

Agency Information
USA
TOKYO
CMA
HKO
NEWDELHI
REUNION
BOM
NADI
WELLINGTON
DS824
TD9636 cons_worldwide_trop_cyclone_18710101-19891231-003:Line=7606
TD9635
NEUMANN
MLC

All available IBTrACS Data

SEASON BASIN SUBBASIN ISO_TIME_________ NATURE LAT LON DIST2LAND LANDFALL IFLAG USA SSHS TD9636 LAT TD9636 LON TD9636 STAGE STORM SPEED STORM DIR
Year degrees north degrees east km km 1 degrees north degrees east kts degrees
1926 WP MM 1926-08-11 22:00:00 NR 15.60 126.80 320 279 __________O___ -1 15.60 126.80 2 18 284
1926 WP MM 1926-08-12 00:00:00 NR 15.75 126.20 279 243 __________P___ -1 15.75 126.20 2 18 284
1926 WP MM 03:00:00 NR 15.95 125.31 248 231 __________P___ -1 15.95 125.31 2 17 283
1926 WP MM 06:00:00 NR 16.13 124.46 231 144 __________P___ -1 16.13 124.46 2 16 281
1926 WP MM 09:00:00 NR 16.27 123.65 144 117 __________P___ -1 16.27 123.65 2 15 280
1926 WP MM 10:00:00 NR 16.30 123.40 117 72 __________O___ -1 16.30 123.40 2 14 277
1926 WP MM 12:00:00 NR 16.35 122.92 72 0 __________P___ -1 16.35 122.92 2 13 274
1926 WP MM 15:00:00 NR 16.39 122.24 0 0 __________P___ -1 16.39 122.24 2 13 272
1926 WP MM 18:00:00 NR 16.40 121.56 0 0 __________P___ -1 16.40 121.56 2 13 271
1926 WP MM 21:00:00 NR 16.40 120.85 0 0 __________P___ -1 16.40 120.85 2 14 270
1926 WP MM 22:00:00 NR 16.40 120.60 0 0 __________O___ -1 16.40 120.60 2 16 271
1926 WP MM 1926-08-13 00:00:00 NR 16.42 120.05 15 11 __________P___ -1 16.42 120.05 2 17 272
1926 WP MM 03:00:00 NR 16.44 119.16 65 75 __________P___ -1 16.44 119.16 2 17 272
1926 WP MM 06:00:00 NR 16.47 118.24 169 169 __________P___ -1 16.47 118.24 2 18 272
1926 WP MM 09:00:00 NR 16.49 117.31 262 262 __________P___ -1 16.49 117.31 2 18 272
1926 WP MM 10:00:00 NR 16.50 117.00 293 293 __________O___ -1 16.50 117.00 2 20 273
1926 WP MM 12:00:00 NR 16.54 116.29 367 377 __________P___ -1 16.54 116.29 2 21 274
1926 WP MM 15:00:00 NR 16.61 115.21 485 471 __________P___ -1 16.61 115.21 2 20 273
1926 WP MM 18:00:00 NR 16.65 114.25 471 410 __________P___ -1 16.65 114.25 2 16 271
1926 WP MM 21:00:00 NR 16.63 113.55 410 393 __________P___ -1 16.63 113.55 2 12 267
1926 WP MM 22:00:00 NR 16.60 113.40 393 385 __________O___ -1 16.60 113.40 3 5 239
1926 WP MM 1926-08-14 00:00:00 NR 16.50 113.32 392 392 __________P___ -1 16.50 113.32 3 4 166
1926 WP MM 03:00:00 NR 16.28 113.48 423 423 __________P___ -1 16.28 113.48 3 7 135
1926 WP MM 06:00:00 NR 16.02 113.81 469 469 __________P___ -1 16.02 113.81 3 8 129
1926 WP MM 09:00:00 NR 15.77 114.13 508 508 __________P___ -1 15.77 114.13 3 7 131
1926 WP MM 10:00:00 NR 15.70 114.20 524 523 __________O___ -1 15.70 114.20 4 5 0
1926 WP MM 12:00:00 NR 15.53 114.12 531 519 __________P___ -1 15.53 114.12 4 6 214
1926 WP MM 15:00:00 NR 15.29 113.91 519 492 __________P___ -1 15.29 113.91 4 6 228
1926 WP MM 18:00:00 NR 15.14 113.67 492 471 __________P___ -1 15.14 113.67 4 4 250
1926 WP MM 21:00:00 NR 15.15 113.52 471 475 __________P___ -1 15.15 113.52 4 3 290
1926 WP MM 22:00:00 NR 15.20 113.50 475 475 __________O___ -1 15.20 113.50 4 6 0
1926 WP MM 1926-08-15 00:00:00 NR 15.45 113.54 480 462 __________P___ -1 15.45 113.54 4 10 14
1926 WP MM 03:00:00 NR 15.99 113.71 462 442 __________P___ -1 15.99 113.71 4 13 22
1926 WP MM 06:00:00 NR 16.61 114.02 445 442 __________P___ -1 16.61 114.02 4 14 31
1926 WP MM 09:00:00 NR 17.16 114.44 448 450 __________P___ -1 17.16 114.44 4 13 39
1926 WP MM 10:00:00 NR 17.30 114.60 458 458 __________O___ -1 17.30 114.60 4 12 62
1926 WP MM 12:00:00 NR 17.43 114.97 488 466 __________P___ -1 17.43 114.97 4 12 78
1926 WP MM 15:00:00 NR 17.50 115.61 466 395 __________P___ -1 17.50 115.61 4 13 87
1926 WP MM 18:00:00 NR 17.50 116.31 395 326 __________P___ -1 17.50 116.31 4 13 91
1926 WP MM 21:00:00 NR 17.49 116.99 326 307 __________P___ -1 17.49 116.99 4 13 90
1926 WP MM 22:00:00 NR 17.50 117.20 307 269 __________O___ -1 17.50 117.20 4 12 84
1926 WP MM 1926-08-16 00:00:00 NR 17.55 117.60 275 222 __________P___ -1 17.55 117.60 4 11 80
1926 WP MM 03:00:00 NR 17.67 118.16 222 181 __________P___ -1 17.67 118.16 4 10 74
1926 WP MM 06:00:00 NR 17.84 118.64 181 144 __________P___ -1 17.84 118.64 4 9 62
1926 WP MM 09:00:00 NR 18.09 119.01 148 138 __________P___ -1 18.09 119.01 4 9 50
1926 WP MM 10:00:00 NR 18.20 119.10 143 139 __________O___ -1 18.20 119.10 4 8 31
1926 WP MM 12:00:00 NR 18.45 119.24 144 134 __________P___ -1 18.45 119.24 4 9 18
1926 WP MM 15:00:00 NR 18.91 119.34 147 143 __________P___ -1 18.91 119.34 4 10 6
1926 WP MM 18:00:00 NR 19.44 119.35 168 176 __________P___ -1 19.44 119.35 4 11 359
1926 WP MM 21:00:00 NR 20.01 119.32 222 222 __________P___ -1 20.01 119.32 4 11 355
1926 WP MM 22:00:00 NR 20.20 119.30 238 __________O___ -1 20.20 119.30 7 12 354